Adger, Alabama
Current Conditions -  °F | °C
As of 7:53 AM on Sunday 23 Nov 2014 (Local Time) from KBHM Reporting Station
Light Rain Light Rain  
Wind Chill: 56°   Ceiling: 800
Heat Index: 56°   Visibility: 4mi
Dew Point: 54°   Wind: 9mph
Humidity: 93%   Direction: 110°ESE
Pressure: 29.89"   Gusts: 17mph
Location:  33.44°N, 87.19°W
Report Text: KBHM 231353Z 11008G15KT 4SM -RA BR OVC008 13/12 A2989 RMK AO2 DZB20E36RAB48 CIG 006V010 SLP117 P0000 T01330122
Loading
Personal Weather Stations






























Interactive Weather Map New forecast layout! Learn more

10-Day Weather Forecast

Advertisements
Track Severe Weather on mobile